Thurmont, MD

11:59 AM EDT on June 02, 2015 (GMT -0400)
Hagerstown Regional-Henson | | Change Station
CLOSE
Current Station
Airport
Location: Hagerstown,
Elevation: 705 ft
Nearby Weather Stations

Elev 705 ft 39.71 °N, 77.73 °W | Updated 6 minutes ago

Rain
Rain
58 °F
Feels Like 58 °F
N
9
Wind Variable Wind from North

Today
High -- | Low -- °F
--% Chance of Precip.
Yesterday
High -- | Low -- °F
Precip. -- in
5:43 AM 8:31 PM
Full, 100% visible
Pressure 30.16 in
Visibility 4.0 miles
Clouds Mostly Cloudy 600 ft
Overcast 1100 ft
Dew Point 55 °F
Humidity 90%
Rainfall 0.23 in
Snow Depth Not available.
UV 3 out of 12
Pollen .40 out of 12
Air Quality Not available.
Flu Activity Sporadic
METAR KHGR 021553Z 35008KT 4SM -RA BR BKN006 OVC011 14/13 A3013 RMK AO2 CIG 005V009 SLP211 P0007 T01440128

More Conditions Fewer Conditions

Pressure 30.16 in
Visibility 4.0 miles
Clouds Mostly Cloudy 600 ft
Overcast 1100 ft
Dew Point 55 °F
Humidity 90%
Rainfall 0.23 in
Snow Depth Not available.
UV 3 out of 12
Pollen .40 out of 12
Air Quality Not available.
Flu Activity Sporadic
METAR KHGR 021553Z 35008KT 4SM -RA BR BKN006 OVC011 14/13 A3013 RMK AO2 CIG 005V009 SLP211 P0007 T01440128

More Conditions Fewer Conditions

10-Day Weather Forecast

Almanac

Astronomy

Jun. 02, 2015 Rise Set
Actual Time
Civil Twilight
Nautical Twilight
Astronomical Twilight
Moon
Length of Visible Light
Length of Day
Tomorrow will be .
, % of the Moon is Illuminated

Today's Extremes

State Highs State Lows

Community

WunderPhotos

Upload Photos

1,825,966 photos uploaded!

WunderBlogs® & News

Nearby

Air Quality

  Air Quality AQ Index Pollutant
Not available.

Snow Depth

Station Depth Elevation

Earthquake Activity

City Distance Mag. Time & Date
Minimum magnitude displayed is 2.5.

Coastal Water Temperatures

Place Temperature

Stations

Nearby Weather Stations

Station Location Temp. Windchill Dew Point Humidity Wind Precip. Elev Updated Type